Alpine Link — V7SZ7 — position and weather

sailwx.info

Track history (hours):
 
Tides and Currents Weather Stations Pressure Air Temp Water Temp Dewpoint Dewpoint Depression Visibility Wind Speed Wind Dir Waves Ship Positions

Alpine Link

Last reported at 2014-Oct-01 02:33 UTC. Time now 2014-Oct-01 22:29 UTC.
Position N 41°52' E 028°44'.

Length 183 m; draft 7.5 m.

Type: Tanker. MMSI: 538003758.

Date/timePositionNaut miles runAvg speedWind from/ knotsBaromVisibWave heightAir tempDewpointWater temp
2014-Oct-01 02:33N 41°52' E 028°44'5210.0
2014-Sep-30 21:22N 41°02' E 029°00'7 8.4
2014-Sep-30 20:32N 40°55' E 028°58'1010.5
2014-Sep-30 19:32N 40°46' E 028°50'7 6.6
2014-Sep-30 18:32N 40°41' E 028°45'3 1.1
2014-Sep-30 16:08N 40°44' E 028°45'1 1.1
2014-Sep-30 15:20N 40°45' E 028°46'2 1.0
2014-Sep-30 13:08N 40°46' E 028°48'3 1.1
2014-Sep-30 10:20N 40°48' E 028°51'1 0.8
2014-Sep-30 09:32N 40°47' E 028°51'9 9.3
2014-Sep-30 08:31N 40°44' E 028°40'8 0.6
2014-Sep-29 20:32N 40°46' E 028°49'4 1.1
2014-Sep-29 16:33N 40°44' E 028°55'2 1.9
2014-Sep-29 15:28N 40°42' E 028°54'1 1.3
2014-Sep-29 14:28N 40°43' E 028°53'1 0.9
2014-Sep-29 13:19N 40°44' E 028°53'1 0.9
2014-Sep-29 12:07N 40°45' E 028°53'1 0.9
2014-Sep-29 11:31N 40°46' E 028°53'6 6.4
2014-Sep-29 10:34N 40°44' E 028°46'4 0.4
2014-Sep-29 02:23N 40°46' E 028°42'0 0.4
2014-Sep-29 01:32N 40°46' E 028°41'2 1.7
2014-Sep-29 00:30N 40°48' E 028°40'217 6.0
2014-Sep-27 12:10N 38°02' E 025°38'812.6
2014-Sep-27 11:33N 37°55' E 025°41'1513.0
2014-Sep-27 10:26N 37°42' E 025°48'1212.9
2014-Sep-27 09:33N 37°31' E 025°53'1413.4
2014-Sep-27 08:32N 37°18' E 026°00'1513.2
2014-Sep-27 07:25N 37°05' E 026°09'2412.6
2014-Sep-27 05:33N 36°46' E 026°25'1513.0
2014-Sep-27 04:24N 36°34' E 026°37'1612.9
2014-Sep-27 03:10N 36°22' E 026°50'812.7
2014-Sep-27 02:33N 36°16' E 026°56'17912.7
2014-Sep-26 12:28N 35°02' E 030°17'11813.0
2014-Sep-26 03:24N 34°27' E 032°34'1112.6
2014-Sep-26 02:33N 34°27' E 032°47'1312.7
2014-Sep-26 01:33N 34°27' E 033°02'1312.7
2014-Sep-26 00:33N 34°29' E 033°18'2 2.0
2014-Sep-25 23:33N 34°31' E 033°19'2 2.0
2014-Sep-25 22:33N 34°32' E 033°21'10 9.7
2014-Sep-25 21:33N 34°33' E 033°33'3 2.5
2014-Sep-25 20:33N 34°35' E 033°35'4 3.6
2014-Sep-25 19:33N 34°37' E 033°39'4 4.3
2014-Sep-25 18:33N 34°40' E 033°43'4 4.4
2014-Sep-25 17:32N 34°42' E 033°47'0 0.2
2014-Sep-25 16:33N 34°42' E 033°47'1 0.6
2014-Sep-25 15:33N 34°42' E 033°47'1 0.9
2014-Sep-25 14:33N 34°41' E 033°46'2 1.5
2014-Sep-25 13:30N 34°40' E 033°45'2 1.7
2014-Sep-25 12:33N 34°39' E 033°43'2 1.9
2014-Sep-25 11:33N 34°37' E 033°42'4 1.8
2014-Sep-25 09:30N 34°35' E 033°39'10 1.8
2014-Sep-25 04:16N 34°35' E 033°50'5 1.6
2014-Sep-25 01:06N 34°37' E 033°56'1 0.8
2014-Sep-24 23:33N 34°36' E 033°55'1 0.7
2014-Sep-24 22:33N 34°36' E 033°54'3 0.9
2014-Sep-24 19:33N 34°36' E 033°51'1 1.1
2014-Sep-24 18:33N 34°36' E 033°50'1 1.4
2014-Sep-24 17:33N 34°35' E 033°48'1 1.4
2014-Sep-24 16:33N 34°35' E 033°46'3 3.3
2014-Sep-24 15:33N 34°34' E 033°43'6 5.8
2014-Sep-24 14:33N 34°32' E 033°36'6 6.4
2014-Sep-24 13:33N 34°30' E 033°29'4 4.0
2014-Sep-24 12:32N 34°31' E 033°24'2 1.9
2014-Sep-24 11:33N 34°32' E 033°22'2 1.7
2014-Sep-24 10:33N 34°30' E 033°22'1 1.2
2014-Sep-24 09:33N 34°30' E 033°20'1 1.4
2014-Sep-24 08:33N 34°29' E 033°19'1 1.3
2014-Sep-24 07:33N 34°29' E 033°17'1 1.1
2014-Sep-24 06:30N 34°28' E 033°16'1 1.0
2014-Sep-24 05:21N 34°28' E 033°15'0 0.4
2014-Sep-24 04:34N 34°27' E 033°15'6 2.4
2014-Sep-24 02:11N 34°22' E 033°16'1 0.3
2014-Sep-23 23:29N 34°21' E 033°16'1 0.3
2014-Sep-23 21:32N 34°22' E 033°15'5 0.8
2014-Sep-23 15:20N 34°23' E 033°09'1 0.9
2014-Sep-23 14:32N 34°23' E 033°09'8 8.0
2014-Sep-23 13:33N 34°27' E 033°17'4 3.6
2014-Sep-23 12:33N 34°28' E 033°21'1 1.2
2014-Sep-23 11:33N 34°28' E 033°20'1 1.2
2014-Sep-23 10:33N 34°27' E 033°19'2 1.1
2014-Sep-23 08:33N 34°26' E 033°16'1 0.9
2014-Sep-23 07:24N 34°25' E 033°16'1 0.8
2014-Sep-23 06:33N 34°25' E 033°15'1 0.6
2014-Sep-23 04:15N 34°24' E 033°14'0 0.5
2014-Sep-23 03:33N 34°24' E 033°13'1 0.5
2014-Sep-23 02:33N 34°24' E 033°13'2 0.4
2014-Sep-22 20:30N 34°23' E 033°10'1 0.6
2014-Sep-22 19:33N 34°23' E 033°09'1 0.6
2014-Sep-22 18:33N 34°24' E 033°09'1110.5
2014-Sep-22 17:33N 34°27' E 032°57'1312.9
2014-Sep-22 16:33N 34°27' E 032°41'33412.8
2014-Sep-21 14:28N 36°45' E 026°27'1313.8
2014-Sep-21 13:31N 36°55' E 026°16'1313.6
2014-Sep-21 12:33N 37°06' E 026°08'1413.8
2014-Sep-21 11:33N 37°18' E 026°00'1313.1
2014-Sep-21 10:33N 37°30' E 025°53'1312.5
2014-Sep-21 09:30N 37°42' E 025°47'  
Track history (hours):
 
Tides and Currents Weather Stations Pressure Air Temp Water Temp Dewpoint Dewpoint Depression Visibility Wind Speed Wind Dir Waves Ship Positions

Alpine Link

Last reported at 2014-Oct-01 02:33 UTC. Time now 2014-Oct-01 22:29 UTC.
Position N 41°52' E 028°44'.

Length 183 m; draft 7.5 m.

Type: Tanker. MMSI: 538003758.

Date/timePositionNaut miles runAvg speedWind from/ knotsBaromVisibWave heightAir tempDewpointWater temp
2014-Oct-01 02:33N 41°52' E 028°44'5210.0
2014-Sep-30 21:22N 41°02' E 029°00'7 8.4
2014-Sep-30 20:32N 40°55' E 028°58'1010.5
2014-Sep-30 19:32N 40°46' E 028°50'7 6.6
2014-Sep-30 18:32N 40°41' E 028°45'3 1.1
2014-Sep-30 16:08N 40°44' E 028°45'1 1.1
2014-Sep-30 15:20N 40°45' E 028°46'2 1.0
2014-Sep-30 13:08N 40°46' E 028°48'3 1.1
2014-Sep-30 10:20N 40°48' E 028°51'1 0.8
2014-Sep-30 09:32N 40°47' E 028°51'9 9.3
2014-Sep-30 08:31N 40°44' E 028°40'8 0.6
2014-Sep-29 20:32N 40°46' E 028°49'4 1.1
2014-Sep-29 16:33N 40°44' E 028°55'2 1.9
2014-Sep-29 15:28N 40°42' E 028°54'1 1.3
2014-Sep-29 14:28N 40°43' E 028°53'1 0.9
2014-Sep-29 13:19N 40°44' E 028°53'1 0.9
2014-Sep-29 12:07N 40°45' E 028°53'1 0.9
2014-Sep-29 11:31N 40°46' E 028°53'6 6.4
2014-Sep-29 10:34N 40°44' E 028°46'4 0.4
2014-Sep-29 02:23N 40°46' E 028°42'0 0.4
2014-Sep-29 01:32N 40°46' E 028°41'2 1.7
2014-Sep-29 00:30N 40°48' E 028°40'217 6.0
2014-Sep-27 12:10N 38°02' E 025°38'812.6
2014-Sep-27 11:33N 37°55' E 025°41'1513.0
2014-Sep-27 10:26N 37°42' E 025°48'1212.9
2014-Sep-27 09:33N 37°31' E 025°53'1413.4
2014-Sep-27 08:32N 37°18' E 026°00'1513.2
2014-Sep-27 07:25N 37°05' E 026°09'2412.6
2014-Sep-27 05:33N 36°46' E 026°25'1513.0
2014-Sep-27 04:24N 36°34' E 026°37'1612.9
2014-Sep-27 03:10N 36°22' E 026°50'812.7
2014-Sep-27 02:33N 36°16' E 026°56'17912.7
2014-Sep-26 12:28N 35°02' E 030°17'11813.0
2014-Sep-26 03:24N 34°27' E 032°34'1112.6
2014-Sep-26 02:33N 34°27' E 032°47'1312.7
2014-Sep-26 01:33N 34°27' E 033°02'1312.7
2014-Sep-26 00:33N 34°29' E 033°18'2 2.0
2014-Sep-25 23:33N 34°31' E 033°19'2 2.0
2014-Sep-25 22:33N 34°32' E 033°21'10 9.7
2014-Sep-25 21:33N 34°33' E 033°33'3 2.5
2014-Sep-25 20:33N 34°35' E 033°35'4 3.6
2014-Sep-25 19:33N 34°37' E 033°39'4 4.3
2014-Sep-25 18:33N 34°40' E 033°43'4 4.4
2014-Sep-25 17:32N 34°42' E 033°47'0 0.2
2014-Sep-25 16:33N 34°42' E 033°47'1 0.6
2014-Sep-25 15:33N 34°42' E 033°47'1 0.9
2014-Sep-25 14:33N 34°41' E 033°46'2 1.5
2014-Sep-25 13:30N 34°40' E 033°45'2 1.7
2014-Sep-25 12:33N 34°39' E 033°43'2 1.9
2014-Sep-25 11:33N 34°37' E 033°42'4 1.8
2014-Sep-25 09:30N 34°35' E 033°39'10 1.8
2014-Sep-25 04:16N 34°35' E 033°50'5 1.6
2014-Sep-25 01:06N 34°37' E 033°56'1 0.8
2014-Sep-24 23:33N 34°36' E 033°55'1 0.7
2014-Sep-24 22:33N 34°36' E 033°54'3 0.9
2014-Sep-24 19:33N 34°36' E 033°51'1 1.1
2014-Sep-24 18:33N 34°36' E 033°50'1 1.4
2014-Sep-24 17:33N 34°35' E 033°48'1 1.4
2014-Sep-24 16:33N 34°35' E 033°46'3 3.3
2014-Sep-24 15:33N 34°34' E 033°43'6 5.8
2014-Sep-24 14:33N 34°32' E 033°36'6 6.4
2014-Sep-24 13:33N 34°30' E 033°29'4 4.0
2014-Sep-24 12:32N 34°31' E 033°24'2 1.9
2014-Sep-24 11:33N 34°32' E 033°22'2 1.7
2014-Sep-24 10:33N 34°30' E 033°22'1 1.2
2014-Sep-24 09:33N 34°30' E 033°20'1 1.4
2014-Sep-24 08:33N 34°29' E 033°19'1 1.3
2014-Sep-24 07:33N 34°29' E 033°17'1 1.1
2014-Sep-24 06:30N 34°28' E 033°16'1 1.0
2014-Sep-24 05:21N 34°28' E 033°15'0 0.4
2014-Sep-24 04:34N 34°27' E 033°15'6 2.4
2014-Sep-24 02:11N 34°22' E 033°16'1 0.3
2014-Sep-23 23:29N 34°21' E 033°16'1 0.3
2014-Sep-23 21:32N 34°22' E 033°15'5 0.8
2014-Sep-23 15:20N 34°23' E 033°09'1 0.9
2014-Sep-23 14:32N 34°23' E 033°09'8 8.0
2014-Sep-23 13:33N 34°27' E 033°17'4 3.6
2014-Sep-23 12:33N 34°28' E 033°21'1 1.2
2014-Sep-23 11:33N 34°28' E 033°20'1 1.2
2014-Sep-23 10:33N 34°27' E 033°19'2 1.1
2014-Sep-23 08:33N 34°26' E 033°16'1 0.9
2014-Sep-23 07:24N 34°25' E 033°16'1 0.8
2014-Sep-23 06:33N 34°25' E 033°15'1 0.6
2014-Sep-23 04:15N 34°24' E 033°14'0 0.5
2014-Sep-23 03:33N 34°24' E 033°13'1 0.5
2014-Sep-23 02:33N 34°24' E 033°13'2 0.4
2014-Sep-22 20:30N 34°23' E 033°10'1 0.6
2014-Sep-22 19:33N 34°23' E 033°09'1 0.6
2014-Sep-22 18:33N 34°24' E 033°09'1110.5
2014-Sep-22 17:33N 34°27' E 032°57'1312.9
2014-Sep-22 16:33N 34°27' E 032°41'33412.8
2014-Sep-21 14:28N 36°45' E 026°27'1313.8
2014-Sep-21 13:31N 36°55' E 026°16'1313.6
2014-Sep-21 12:33N 37°06' E 026°08'1413.8
2014-Sep-21 11:33N 37°18' E 026°00'1313.1
2014-Sep-21 10:33N 37°30' E 025°53'1312.5
2014-Sep-21 09:30N 37°42' E 025°47'  

Dump ship's entire track history